sensor_id;sensor_type;location;lat;lon;timestamp;P1;durP1;ratioP1;P2;durP2;ratioP2
68168;SDS011;54981;50.206;15.978;2022-09-09T00:04:30;8.70;;;6.60;;
68168;SDS011;54981;50.206;15.978;2022-09-09T00:15:13;10.13;;;6.93;;
68168;SDS011;54981;50.206;15.978;2022-09-09T00:20:28;18.33;;;7.07;;
68168;SDS011;54981;50.206;15.978;2022-09-09T00:25:57;12.35;;;7.03;;
68168;SDS011;54981;50.206;15.978;2022-09-09T00:28:28;9.93;;;7.45;;
68168;SDS011;54981;50.206;15.978;2022-09-09T00:31:08;9.43;;;6.75;;
68168;SDS011;54981;50.206;15.978;2022-09-09T00:33:38;9.40;;;6.55;;
68168;SDS011;54981;50.206;15.978;2022-09-09T00:36:05;11.82;;;6.45;;
68168;SDS011;54981;50.206;15.978;2022-09-09T00:38:48;12.45;;;7.70;;
68168;SDS011;54981;50.206;15.978;2022-09-09T00:41:29;9.18;;;6.43;;
68168;SDS011;54981;50.206;15.978;2022-09-09T00:50:03;11.13;;;7.57;;
68168;SDS011;54981;50.206;15.978;2022-09-09T00:55:28;21.15;;;7.47;;
68168;SDS011;54981;50.206;15.978;2022-09-09T00:58:16;16.20;;;6.88;;
68168;SDS011;54981;50.206;15.978;2022-09-09T01:00:43;10.05;;;5.82;;
68168;SDS011;54981;50.206;15.978;2022-09-09T01:06:22;17.88;;;6.90;;
68168;SDS011;54981;50.206;15.978;2022-09-09T01:11:51;18.90;;;7.68;;
68168;SDS011;54981;50.206;15.978;2022-09-09T01:17:03;10.68;;;7.70;;
68168;SDS011;54981;50.206;15.978;2022-09-09T01:27:50;14.00;;;8.80;;
68168;SDS011;54981;50.206;15.978;2022-09-09T01:30:18;16.35;;;8.30;;
68168;SDS011;54981;50.206;15.978;2022-09-09T01:35:15;10.38;;;8.27;;
68168;SDS011;54981;50.206;15.978;2022-09-09T01:37:54;13.60;;;9.00;;
68168;SDS011;54981;50.206;15.978;2022-09-09T01:40:19;39.15;;;9.32;;
68168;SDS011;54981;50.206;15.978;2022-09-09T01:42:44;17.48;;;8.35;;
68168;SDS011;54981;50.206;15.978;2022-09-09T01:45:10;19.55;;;9.35;;
68168;SDS011;54981;50.206;15.978;2022-09-09T01:47:35;14.65;;;8.63;;
68168;SDS011;54981;50.206;15.978;2022-09-09T01:50:01;11.73;;;8.90;;
68168;SDS011;54981;50.206;15.978;2022-09-09T01:52:27;19.83;;;9.63;;
68168;SDS011;54981;50.206;15.978;2022-09-09T01:54:54;14.93;;;8.48;;
68168;SDS011;54981;50.206;15.978;2022-09-09T01:57:27;17.05;;;7.80;;
68168;SDS011;54981;50.206;15.978;2022-09-09T02:03:16;15.93;;;9.75;;
68168;SDS011;54981;50.206;15.978;2022-09-09T02:05:40;13.30;;;8.50;;
68168;SDS011;54981;50.206;15.978;2022-09-09T02:13:40;15.05;;;10.10;;
68168;SDS011;54981;50.206;15.978;2022-09-09T02:16:08;20.98;;;8.60;;
68168;SDS011;54981;50.206;15.978;2022-09-09T02:18:43;12.23;;;9.25;;
68168;SDS011;54981;50.206;15.978;2022-09-09T02:21:14;14.52;;;9.48;;
68168;SDS011;54981;50.206;15.978;2022-09-09T02:23:42;16.23;;;10.00;;
68168;SDS011;54981;50.206;15.978;2022-09-09T02:26:11;15.85;;;8.98;;
68168;SDS011;54981;50.206;15.978;2022-09-09T02:28:44;22.20;;;9.95;;
68168;SDS011;54981;50.206;15.978;2022-09-09T02:31:11;12.45;;;9.57;;
68168;SDS011;54981;50.206;15.978;2022-09-09T02:33:39;15.35;;;10.63;;
68168;SDS011;54981;50.206;15.978;2022-09-09T02:36:08;13.35;;;11.07;;
68168;SDS011;54981;50.206;15.978;2022-09-09T02:38:38;14.73;;;10.50;;
68168;SDS011;54981;50.206;15.978;2022-09-09T02:43:35;18.50;;;11.60;;
68168;SDS011;54981;50.206;15.978;2022-09-09T02:49:02;36.47;;;11.98;;
68168;SDS011;54981;50.206;15.978;2022-09-09T02:57:01;81.00;;;12.32;;
68168;SDS011;54981;50.206;15.978;2022-09-09T02:59:31;28.27;;;13.07;;
68168;SDS011;54981;50.206;15.978;2022-09-09T03:01:57;21.42;;;12.50;;
68168;SDS011;54981;50.206;15.978;2022-09-09T03:04:22;48.10;;;13.80;;
68168;SDS011;54981;50.206;15.978;2022-09-09T03:06:49;20.02;;;12.82;;
68168;SDS011;54981;50.206;15.978;2022-09-09T03:09:14;19.52;;;11.48;;
68168;SDS011;54981;50.206;15.978;2022-09-09T03:11:40;28.33;;;12.18;;
68168;SDS011;54981;50.206;15.978;2022-09-09T03:14:05;17.67;;;12.00;;
68168;SDS011;54981;50.206;15.978;2022-09-09T03:16:31;19.63;;;10.55;;
68168;SDS011;54981;50.206;15.978;2022-09-09T03:18:58;20.70;;;11.77;;
68168;SDS011;54981;50.206;15.978;2022-09-09T03:21:23;14.20;;;9.68;;
68168;SDS011;54981;50.206;15.978;2022-09-09T03:23:49;21.73;;;10.25;;
68168;SDS011;54981;50.206;15.978;2022-09-09T03:26:15;10.77;;;9.45;;
68168;SDS011;54981;50.206;15.978;2022-09-09T03:28:41;9.35;;;8.27;;
68168;SDS011;54981;50.206;15.978;2022-09-09T03:31:07;10.32;;;8.73;;
68168;SDS011;54981;50.206;15.978;2022-09-09T03:33:35;9.77;;;8.00;;
68168;SDS011;54981;50.206;15.978;2022-09-09T03:36:02;8.70;;;7.63;;
68168;SDS011;54981;50.206;15.978;2022-09-09T03:38:27;11.45;;;9.15;;
68168;SDS011;54981;50.206;15.978;2022-09-09T03:40:53;9.52;;;8.52;;
68168;SDS011;54981;50.206;15.978;2022-09-09T03:43:22;10.13;;;9.05;;
68168;SDS011;54981;50.206;15.978;2022-09-09T03:45:48;14.07;;;10.38;;
68168;SDS011;54981;50.206;15.978;2022-09-09T03:48:14;12.80;;;11.02;;
68168;SDS011;54981;50.206;15.978;2022-09-09T03:50:46;11.30;;;10.10;;
68168;SDS011;54981;50.206;15.978;2022-09-09T03:53:13;13.30;;;11.98;;
68168;SDS011;54981;50.206;15.978;2022-09-09T03:55:43;11.07;;;9.32;;
68168;SDS011;54981;50.206;15.978;2022-09-09T03:58:10;11.85;;;10.70;;
68168;SDS011;54981;50.206;15.978;2022-09-09T04:00:36;10.80;;;9.70;;
68168;SDS011;54981;50.206;15.978;2022-09-09T04:03:01;13.63;;;10.93;;
68168;SDS011;54981;50.206;15.978;2022-09-09T04:05:27;12.85;;;10.98;;
68168;SDS011;54981;50.206;15.978;2022-09-09T04:07:52;12.57;;;11.00;;
68168;SDS011;54981;50.206;15.978;2022-09-09T04:10:21;12.40;;;11.00;;
68168;SDS011;54981;50.206;15.978;2022-09-09T04:12:49;10.85;;;9.18;;
68168;SDS011;54981;50.206;15.978;2022-09-09T04:15:18;11.00;;;9.20;;
68168;SDS011;54981;50.206;15.978;2022-09-09T04:17:46;10.07;;;9.07;;
68168;SDS011;54981;50.206;15.978;2022-09-09T04:20:12;10.00;;;9.02;;
68168;SDS011;54981;50.206;15.978;2022-09-09T04:22:41;10.25;;;9.32;;
68168;SDS011;54981;50.206;15.978;2022-09-09T04:25:10;11.30;;;7.90;;
68168;SDS011;54981;50.206;15.978;2022-09-09T04:27:38;11.15;;;8.93;;
68168;SDS011;54981;50.206;15.978;2022-09-09T04:30:04;14.43;;;9.75;;
68168;SDS011;54981;50.206;15.978;2022-09-09T04:32:31;13.07;;;9.32;;
68168;SDS011;54981;50.206;15.978;2022-09-09T04:34:58;13.18;;;10.35;;
68168;SDS011;54981;50.206;15.978;2022-09-09T04:37:23;11.95;;;9.52;;
68168;SDS011;54981;50.206;15.978;2022-09-09T04:39:49;12.77;;;10.60;;
68168;SDS011;54981;50.206;15.978;2022-09-09T04:42:15;12.80;;;9.75;;
68168;SDS011;54981;50.206;15.978;2022-09-09T04:44:41;16.25;;;10.65;;
68168;SDS011;54981;50.206;15.978;2022-09-09T04:47:06;15.50;;;10.52;;
68168;SDS011;54981;50.206;15.978;2022-09-09T04:49:32;14.77;;;11.60;;
68168;SDS011;54981;50.206;15.978;2022-09-09T04:51:57;14.55;;;11.30;;
68168;SDS011;54981;50.206;15.978;2022-09-09T04:54:22;16.60;;;12.10;;
68168;SDS011;54981;50.206;15.978;2022-09-09T04:56:49;15.68;;;11.07;;
68168;SDS011;54981;50.206;15.978;2022-09-09T04:59:15;16.05;;;11.70;;
68168;SDS011;54981;50.206;15.978;2022-09-09T05:01:41;16.17;;;12.55;;
68168;SDS011;54981;50.206;15.978;2022-09-09T05:04:07;17.15;;;12.70;;
68168;SDS011;54981;50.206;15.978;2022-09-09T05:06:33;16.45;;;13.88;;
68168;SDS011;54981;50.206;15.978;2022-09-09T05:09:00;18.65;;;12.35;;
68168;SDS011;54981;50.206;15.978;2022-09-09T05:11:26;16.48;;;13.55;;
68168;SDS011;54981;50.206;15.978;2022-09-09T05:13:53;16.83;;;11.82;;
68168;SDS011;54981;50.206;15.978;2022-09-09T05:16:19;15.75;;;12.40;;
68168;SDS011;54981;50.206;15.978;2022-09-09T05:18:45;16.27;;;12.23;;
68168;SDS011;54981;50.206;15.978;2022-09-09T05:21:12;18.73;;;13.45;;
68168;SDS011;54981;50.206;15.978;2022-09-09T05:23:38;14.68;;;12.35;;
68168;SDS011;54981;50.206;15.978;2022-09-09T05:26:04;15.65;;;12.40;;
68168;SDS011;54981;50.206;15.978;2022-09-09T05:28:30;17.13;;;14.60;;
68168;SDS011;54981;50.206;15.978;2022-09-09T05:30:59;12.10;;;10.80;;
68168;SDS011;54981;50.206;15.978;2022-09-09T05:33:26;13.75;;;12.27;;
68168;SDS011;54981;50.206;15.978;2022-09-09T05:35:59;13.98;;;12.57;;
68168;SDS011;54981;50.206;15.978;2022-09-09T05:38:26;14.95;;;13.35;;
68168;SDS011;54981;50.206;15.978;2022-09-09T05:40:52;12.38;;;11.18;;
68168;SDS011;54981;50.206;15.978;2022-09-09T05:43:18;14.48;;;11.52;;
68168;SDS011;54981;50.206;15.978;2022-09-09T05:45:45;13.70;;;11.77;;
68168;SDS011;54981;50.206;15.978;2022-09-09T05:48:12;13.10;;;11.82;;
68168;SDS011;54981;50.206;15.978;2022-09-09T05:50:41;12.00;;;10.88;;
68168;SDS011;54981;50.206;15.978;2022-09-09T05:53:07;12.80;;;11.50;;
68168;SDS011;54981;50.206;15.978;2022-09-09T05:55:33;11.30;;;10.02;;
68168;SDS011;54981;50.206;15.978;2022-09-09T05:57:59;11.52;;;10.38;;
68168;SDS011;54981;50.206;15.978;2022-09-09T06:00:24;12.40;;;11.18;;
68168;SDS011;54981;50.206;15.978;2022-09-09T06:02:51;12.75;;;9.93;;
68168;SDS011;54981;50.206;15.978;2022-09-09T06:05:17;9.93;;;8.82;;
68168;SDS011;54981;50.206;15.978;2022-09-09T06:07:43;11.48;;;9.98;;
68168;SDS011;54981;50.206;15.978;2022-09-09T06:10:09;9.98;;;8.88;;
68168;SDS011;54981;50.206;15.978;2022-09-09T06:12:38;9.50;;;8.30;;
68168;SDS011;54981;50.206;15.978;2022-09-09T06:15:03;8.13;;;7.32;;
68168;SDS011;54981;50.206;15.978;2022-09-09T06:17:29;8.68;;;7.65;;
68168;SDS011;54981;50.206;15.978;2022-09-09T06:19:54;10.57;;;8.25;;
68168;SDS011;54981;50.206;15.978;2022-09-09T06:22:20;9.57;;;7.82;;
68168;SDS011;54981;50.206;15.978;2022-09-09T06:24:46;8.52;;;7.72;;
68168;SDS011;54981;50.206;15.978;2022-09-09T06:27:11;9.57;;;8.63;;
68168;SDS011;54981;50.206;15.978;2022-09-09T06:29:39;9.75;;;8.75;;
68168;SDS011;54981;50.206;15.978;2022-09-09T06:32:05;9.13;;;8.23;;
68168;SDS011;54981;50.206;15.978;2022-09-09T06:34:30;9.85;;;8.85;;
68168;SDS011;54981;50.206;15.978;2022-09-09T06:36:55;10.70;;;9.70;;
68168;SDS011;54981;50.206;15.978;2022-09-09T06:39:23;10.60;;;9.05;;
68168;SDS011;54981;50.206;15.978;2022-09-09T06:41:48;9.70;;;8.73;;
68168;SDS011;54981;50.206;15.978;2022-09-09T06:44:14;9.23;;;8.32;;
68168;SDS011;54981;50.206;15.978;2022-09-09T06:46:40;10.38;;;8.15;;
68168;SDS011;54981;50.206;15.978;2022-09-09T06:49:06;10.27;;;9.27;;
68168;SDS011;54981;50.206;15.978;2022-09-09T06:51:35;9.38;;;8.45;;
68168;SDS011;54981;50.206;15.978;2022-09-09T06:54:07;11.30;;;8.63;;
68168;SDS011;54981;50.206;15.978;2022-09-09T06:56:33;9.63;;;8.63;;
68168;SDS011;54981;50.206;15.978;2022-09-09T06:59:00;9.00;;;8.05;;
68168;SDS011;54981;50.206;15.978;2022-09-09T07:01:29;9.75;;;8.07;;
68168;SDS011;54981;50.206;15.978;2022-09-09T07:03:57;9.70;;;8.80;;
68168;SDS011;54981;50.206;15.978;2022-09-09T07:08:54;9.50;;;8.48;;
68168;SDS011;54981;50.206;15.978;2022-09-09T07:11:22;9.50;;;8.57;;
68168;SDS011;54981;50.206;15.978;2022-09-09T07:13:48;9.32;;;8.43;;
68168;SDS011;54981;50.206;15.978;2022-09-09T07:16:15;8.60;;;7.45;;
68168;SDS011;54981;50.206;15.978;2022-09-09T07:18:42;8.60;;;7.80;;
68168;SDS011;54981;50.206;15.978;2022-09-09T07:21:09;8.57;;;7.78;;
68168;SDS011;54981;50.206;15.978;2022-09-09T07:23:36;9.23;;;7.03;;
68168;SDS011;54981;50.206;15.978;2022-09-09T07:26:06;8.45;;;6.82;;
68168;SDS011;54981;50.206;15.978;2022-09-09T07:28:33;7.78;;;6.90;;
68168;SDS011;54981;50.206;15.978;2022-09-09T07:31:00;7.55;;;6.85;;
68168;SDS011;54981;50.206;15.978;2022-09-09T07:33:27;9.13;;;7.25;;
68168;SDS011;54981;50.206;15.978;2022-09-09T07:36:01;8.85;;;6.60;;
68168;SDS011;54981;50.206;15.978;2022-09-09T07:38:41;6.18;;;5.47;;
68168;SDS011;54981;50.206;15.978;2022-09-09T07:41:11;6.10;;;5.50;;
68168;SDS011;54981;50.206;15.978;2022-09-09T07:43:39;6.47;;;5.90;;
68168;SDS011;54981;50.206;15.978;2022-09-09T07:46:06;7.18;;;5.35;;
68168;SDS011;54981;50.206;15.978;2022-09-09T07:48:32;6.03;;;5.40;;
68168;SDS011;54981;50.206;15.978;2022-09-09T07:51:08;6.97;;;5.95;;
68168;SDS011;54981;50.206;15.978;2022-09-09T07:53:42;7.50;;;5.30;;
68168;SDS011;54981;50.206;15.978;2022-09-09T07:56:09;6.35;;;5.30;;
68168;SDS011;54981;50.206;15.978;2022-09-09T07:58:37;5.78;;;5.20;;
68168;SDS011;54981;50.206;15.978;2022-09-09T08:01:10;9.52;;;5.28;;
68168;SDS011;54981;50.206;15.978;2022-09-09T08:03:42;5.40;;;4.82;;
68168;SDS011;54981;50.206;15.978;2022-09-09T08:06:09;4.90;;;4.45;;
68168;SDS011;54981;50.206;15.978;2022-09-09T08:08:36;4.80;;;4.30;;
68168;SDS011;54981;50.206;15.978;2022-09-09T08:11:08;4.50;;;4.10;;
68168;SDS011;54981;50.206;15.978;2022-09-09T08:13:36;6.18;;;4.15;;
68168;SDS011;54981;50.206;15.978;2022-09-09T08:16:10;5.18;;;4.00;;
68168;SDS011;54981;50.206;15.978;2022-09-09T08:18:38;5.35;;;4.38;;
68168;SDS011;54981;50.206;15.978;2022-09-09T08:21:07;5.00;;;3.63;;
68168;SDS011;54981;50.206;15.978;2022-09-09T08:23:39;5.95;;;3.95;;
68168;SDS011;54981;50.206;15.978;2022-09-09T08:26:19;4.53;;;4.07;;
68168;SDS011;54981;50.206;15.978;2022-09-09T08:28:49;4.75;;;4.32;;
68168;SDS011;54981;50.206;15.978;2022-09-09T08:31:19;5.30;;;3.90;;
68168;SDS011;54981;50.206;15.978;2022-09-09T08:33:49;5.57;;;3.50;;
68168;SDS011;54981;50.206;15.978;2022-09-09T08:36:22;4.82;;;3.97;;
68168;SDS011;54981;50.206;15.978;2022-09-09T08:38:51;6.93;;;3.33;;
68168;SDS011;54981;50.206;15.978;2022-09-09T08:52:25;3.75;;;2.83;;
68168;SDS011;54981;50.206;15.978;2022-09-09T08:54:52;2.97;;;2.72;;
68168;SDS011;54981;50.206;15.978;2022-09-09T08:57:25;4.65;;;3.03;;
68168;SDS011;54981;50.206;15.978;2022-09-09T08:59:53;3.97;;;3.33;;
68168;SDS011;54981;50.206;15.978;2022-09-09T09:02:24;6.18;;;3.85;;
68168;SDS011;54981;50.206;15.978;2022-09-09T09:05:06;4.30;;;3.20;;
68168;SDS011;54981;50.206;15.978;2022-09-09T09:13:26;4.65;;;3.60;;
68168;SDS011;54981;50.206;15.978;2022-09-09T09:15:55;3.83;;;3.45;;
68168;SDS011;54981;50.206;15.978;2022-09-09T09:18:23;6.00;;;3.20;;
68168;SDS011;54981;50.206;15.978;2022-09-09T09:23:45;3.85;;;2.72;;
68168;SDS011;54981;50.206;15.978;2022-09-09T09:26:22;3.38;;;2.72;;
68168;SDS011;54981;50.206;15.978;2022-09-09T09:28:52;5.57;;;2.80;;
68168;SDS011;54981;50.206;15.978;2022-09-09T09:31:21;4.90;;;2.85;;
68168;SDS011;54981;50.206;15.978;2022-09-09T09:33:51;3.95;;;2.38;;
68168;SDS011;54981;50.206;15.978;2022-09-09T09:36:18;6.90;;;3.22;;
68168;SDS011;54981;50.206;15.978;2022-09-09T09:38:56;4.90;;;2.70;;
68168;SDS011;54981;50.206;15.978;2022-09-09T09:44:01;3.60;;;3.30;;
68168;SDS011;54981;50.206;15.978;2022-09-09T09:46:28;5.55;;;3.28;;
68168;SDS011;54981;50.206;15.978;2022-09-09T09:48:57;5.65;;;3.58;;
68168;SDS011;54981;50.206;15.978;2022-09-09T09:51:28;3.47;;;3.17;;
68168;SDS011;54981;50.206;15.978;2022-09-09T09:54:03;3.60;;;3.30;;
68168;SDS011;54981;50.206;15.978;2022-09-09T09:56:40;3.95;;;3.13;;
68168;SDS011;54981;50.206;15.978;2022-09-09T09:59:21;3.55;;;2.60;;
68168;SDS011;54981;50.206;15.978;2022-09-09T10:02:20;3.55;;;2.67;;
68168;SDS011;54981;50.206;15.978;2022-09-09T10:07:27;4.13;;;3.30;;
68168;SDS011;54981;50.206;15.978;2022-09-09T10:09:55;4.63;;;3.53;;
68168;SDS011;54981;50.206;15.978;2022-09-09T10:12:36;3.92;;;2.80;;
68168;SDS011;54981;50.206;15.978;2022-09-09T10:20:42;3.28;;;2.63;;
68168;SDS011;54981;50.206;15.978;2022-09-09T10:31:41;6.75;;;2.90;;
68168;SDS011;54981;50.206;15.978;2022-09-09T10:34:20;4.75;;;3.00;;
68168;SDS011;54981;50.206;15.978;2022-09-09T10:36:49;3.60;;;2.72;;
68168;SDS011;54981;50.206;15.978;2022-09-09T10:42:05;6.65;;;3.25;;
68168;SDS011;54981;50.206;15.978;2022-09-09T10:52:33;3.78;;;3.10;;
68168;SDS011;54981;50.206;15.978;2022-09-09T10:55:27;4.60;;;2.90;;
68168;SDS011;54981;50.206;15.978;2022-09-09T10:57:58;3.15;;;2.40;;
68168;SDS011;54981;50.206;15.978;2022-09-09T11:00:27;3.03;;;2.30;;
68168;SDS011;54981;50.206;15.978;2022-09-09T11:03:21;2.78;;;2.53;;
68168;SDS011;54981;50.206;15.978;2022-09-09T11:05:55;5.07;;;2.65;;
68168;SDS011;54981;50.206;15.978;2022-09-09T11:08:25;2.80;;;1.90;;
68168;SDS011;54981;50.206;15.978;2022-09-09T11:10:58;2.25;;;2.08;;
68168;SDS011;54981;50.206;15.978;2022-09-09T11:21:53;3.45;;;2.35;;
68168;SDS011;54981;50.206;15.978;2022-09-09T11:24:22;2.60;;;2.25;;
68168;SDS011;54981;50.206;15.978;2022-09-09T11:27:14;2.78;;;2.35;;
68168;SDS011;54981;50.206;15.978;2022-09-09T11:34:54;2.53;;;2.25;;
68168;SDS011;54981;50.206;15.978;2022-09-09T11:37:43;5.25;;;2.13;;
68168;SDS011;54981;50.206;15.978;2022-09-09T11:40:24;2.33;;;2.13;;
68168;SDS011;54981;50.206;15.978;2022-09-09T11:43:53;2.65;;;2.45;;
68168;SDS011;54981;50.206;15.978;2022-09-09T11:45:56;2.38;;;2.17;;
68168;SDS011;54981;50.206;15.978;2022-09-09T11:53:55;2.15;;;1.95;;
68168;SDS011;54981;50.206;15.978;2022-09-09T11:56:46;3.15;;;2.25;;
68168;SDS011;54981;50.206;15.978;2022-09-09T12:01:50;3.70;;;2.10;;
68168;SDS011;54981;50.206;15.978;2022-09-09T12:06:53;3.00;;;2.28;;
68168;SDS011;54981;50.206;15.978;2022-09-09T12:09:29;5.07;;;2.63;;
68168;SDS011;54981;50.206;15.978;2022-09-09T12:17:20;4.00;;;1.87;;
68168;SDS011;54981;50.206;15.978;2022-09-09T12:19:48;3.00;;;2.30;;
68168;SDS011;54981;50.206;15.978;2022-09-09T12:25:38;2.42;;;2.15;;
68168;SDS011;54981;50.206;15.978;2022-09-09T12:28:18;2.92;;;1.75;;
68168;SDS011;54981;50.206;15.978;2022-09-09T12:31:00;4.45;;;2.00;;
68168;SDS011;54981;50.206;15.978;2022-09-09T12:33:34;3.50;;;2.00;;
68168;SDS011;54981;50.206;15.978;2022-09-09T12:36:02;3.17;;;1.92;;
68168;SDS011;54981;50.206;15.978;2022-09-09T12:38:39;4.13;;;2.35;;
68168;SDS011;54981;50.206;15.978;2022-09-09T12:41:15;2.63;;;2.33;;
68168;SDS011;54981;50.206;15.978;2022-09-09T12:43:45;3.72;;;2.20;;
68168;SDS011;54981;50.206;15.978;2022-09-09T12:46:13;4.43;;;2.28;;
68168;SDS011;54981;50.206;15.978;2022-09-09T12:48:47;3.97;;;2.28;;
68168;SDS011;54981;50.206;15.978;2022-09-09T12:51:24;4.03;;;2.10;;
68168;SDS011;54981;50.206;15.978;2022-09-09T12:53:53;5.22;;;2.35;;
68168;SDS011;54981;50.206;15.978;2022-09-09T12:56:27;3.38;;;2.20;;
68168;SDS011;54981;50.206;15.978;2022-09-09T12:58:56;2.97;;;2.28;;
68168;SDS011;54981;50.206;15.978;2022-09-09T13:01:26;6.38;;;2.30;;
68168;SDS011;54981;50.206;15.978;2022-09-09T13:03:54;3.95;;;1.77;;
68168;SDS011;54981;50.206;15.978;2022-09-09T13:06:22;4.03;;;2.10;;
68168;SDS011;54981;50.206;15.978;2022-09-09T13:08:58;2.10;;;1.90;;
68168;SDS011;54981;50.206;15.978;2022-09-09T13:13:55;3.47;;;2.58;;
68168;SDS011;54981;50.206;15.978;2022-09-09T13:18:56;2.30;;;2.10;;
68168;SDS011;54981;50.206;15.978;2022-09-09T13:21:34;4.00;;;2.20;;
68168;SDS011;54981;50.206;15.978;2022-09-09T13:24:00;4.85;;;2.20;;
68168;SDS011;54981;50.206;15.978;2022-09-09T13:26:29;3.30;;;2.00;;
68168;SDS011;54981;50.206;15.978;2022-09-09T13:28:55;3.22;;;2.20;;
68168;SDS011;54981;50.206;15.978;2022-09-09T13:31:45;8.68;;;2.00;;
68168;SDS011;54981;50.206;15.978;2022-09-09T13:34:12;3.20;;;1.92;;
68168;SDS011;54981;50.206;15.978;2022-09-09T13:36:59;4.90;;;1.90;;
68168;SDS011;54981;50.206;15.978;2022-09-09T13:39:27;5.72;;;2.30;;
68168;SDS011;54981;50.206;15.978;2022-09-09T13:41:53;5.32;;;2.90;;
68168;SDS011;54981;50.206;15.978;2022-09-09T13:44:26;7.72;;;2.50;;
68168;SDS011;54981;50.206;15.978;2022-09-09T13:52:08;3.25;;;2.03;;
68168;SDS011;54981;50.206;15.978;2022-09-09T13:54:36;4.25;;;2.08;;
68168;SDS011;54981;50.206;15.978;2022-09-09T13:57:02;2.35;;;1.77;;
68168;SDS011;54981;50.206;15.978;2022-09-09T13:59:29;6.30;;;2.50;;
68168;SDS011;54981;50.206;15.978;2022-09-09T14:01:54;3.08;;;2.10;;
68168;SDS011;54981;50.206;15.978;2022-09-09T14:04:19;4.33;;;2.30;;
68168;SDS011;54981;50.206;15.978;2022-09-09T14:06:48;2.38;;;2.17;;
68168;SDS011;54981;50.206;15.978;2022-09-09T14:09:15;3.15;;;2.20;;
68168;SDS011;54981;50.206;15.978;2022-09-09T14:11:43;3.92;;;2.40;;
68168;SDS011;54981;50.206;15.978;2022-09-09T14:14:10;3.03;;;2.20;;
68168;SDS011;54981;50.206;15.978;2022-09-09T14:16:35;4.50;;;2.40;;
68168;SDS011;54981;50.206;15.978;2022-09-09T14:19:02;2.30;;;2.10;;
68168;SDS011;54981;50.206;15.978;2022-09-09T14:21:28;4.13;;;2.20;;
68168;SDS011;54981;50.206;15.978;2022-09-09T14:23:53;3.65;;;2.10;;
68168;SDS011;54981;50.206;15.978;2022-09-09T14:26:19;5.55;;;2.17;;
68168;SDS011;54981;50.206;15.978;2022-09-09T14:28:46;6.13;;;2.38;;
68168;SDS011;54981;50.206;15.978;2022-09-09T14:31:12;2.53;;;2.30;;
68168;SDS011;54981;50.206;15.978;2022-09-09T14:33:38;5.35;;;2.10;;
68168;SDS011;54981;50.206;15.978;2022-09-09T14:36:04;3.00;;;2.00;;
68168;SDS011;54981;50.206;15.978;2022-09-09T14:38:31;6.20;;;2.30;;
68168;SDS011;54981;50.206;15.978;2022-09-09T14:43:29;3.28;;;2.10;;
68168;SDS011;54981;50.206;15.978;2022-09-09T14:45:57;3.35;;;2.47;;
68168;SDS011;54981;50.206;15.978;2022-09-09T14:48:43;3.45;;;1.95;;
68168;SDS011;54981;50.206;15.978;2022-09-09T14:51:19;4.20;;;2.10;;
68168;SDS011;54981;50.206;15.978;2022-09-09T14:53:47;4.97;;;2.35;;
68168;SDS011;54981;50.206;15.978;2022-09-09T14:56:17;3.08;;;2.33;;
68168;SDS011;54981;50.206;15.978;2022-09-09T14:58:45;3.20;;;1.70;;
68168;SDS011;54981;50.206;15.978;2022-09-09T15:01:12;2.47;;;2.28;;
68168;SDS011;54981;50.206;15.978;2022-09-09T15:03:39;4.38;;;2.40;;
68168;SDS011;54981;50.206;15.978;2022-09-09T15:06:06;6.25;;;2.25;;
68168;SDS011;54981;50.206;15.978;2022-09-09T15:08:31;2.20;;;1.90;;
68168;SDS011;54981;50.206;15.978;2022-09-09T15:11:01;3.10;;;2.15;;
68168;SDS011;54981;50.206;15.978;2022-09-09T15:13:28;3.55;;;2.50;;
68168;SDS011;54981;50.206;15.978;2022-09-09T15:15:53;4.85;;;2.00;;
68168;SDS011;54981;50.206;15.978;2022-09-09T15:18:19;3.75;;;2.50;;
68168;SDS011;54981;50.206;15.978;2022-09-09T15:20:45;2.95;;;2.40;;
68168;SDS011;54981;50.206;15.978;2022-09-09T15:23:11;4.82;;;2.30;;
68168;SDS011;54981;50.206;15.978;2022-09-09T15:25:37;4.47;;;2.40;;
68168;SDS011;54981;50.206;15.978;2022-09-09T15:28:02;3.53;;;2.22;;
68168;SDS011;54981;50.206;15.978;2022-09-09T15:30:29;5.53;;;2.47;;
68168;SDS011;54981;50.206;15.978;2022-09-09T15:32:54;4.20;;;3.05;;
68168;SDS011;54981;50.206;15.978;2022-09-09T15:35:20;3.38;;;2.72;;
68168;SDS011;54981;50.206;15.978;2022-09-09T15:37:45;3.63;;;2.35;;
68168;SDS011;54981;50.206;15.978;2022-09-09T15:40:10;5.85;;;3.08;;
68168;SDS011;54981;50.206;15.978;2022-09-09T15:42:36;3.53;;;2.20;;
68168;SDS011;54981;50.206;15.978;2022-09-09T15:45:02;3.53;;;2.65;;
68168;SDS011;54981;50.206;15.978;2022-09-09T15:47:30;4.85;;;3.00;;
68168;SDS011;54981;50.206;15.978;2022-09-09T15:49:55;4.43;;;2.60;;
68168;SDS011;54981;50.206;15.978;2022-09-09T15:52:20;4.50;;;2.47;;
68168;SDS011;54981;50.206;15.978;2022-09-09T15:54:46;4.03;;;2.95;;
68168;SDS011;54981;50.206;15.978;2022-09-09T15:57:12;4.10;;;3.08;;
68168;SDS011;54981;50.206;15.978;2022-09-09T15:59:38;5.35;;;3.30;;
68168;SDS011;54981;50.206;15.978;2022-09-09T16:02:05;6.50;;;2.42;;
68168;SDS011;54981;50.206;15.978;2022-09-09T16:04:31;4.18;;;3.08;;
68168;SDS011;54981;50.206;15.978;2022-09-09T16:06:58;4.45;;;2.55;;
68168;SDS011;54981;50.206;15.978;2022-09-09T16:09:26;7.00;;;2.85;;
68168;SDS011;54981;50.206;15.978;2022-09-09T16:11:52;4.38;;;3.17;;
68168;SDS011;54981;50.206;15.978;2022-09-09T16:14:18;5.30;;;3.33;;
68168;SDS011;54981;50.206;15.978;2022-09-09T16:16:44;4.70;;;3.42;;
68168;SDS011;54981;50.206;15.978;2022-09-09T16:19:10;9.10;;;3.10;;
68168;SDS011;54981;50.206;15.978;2022-09-09T16:21:44;4.72;;;2.88;;
68168;SDS011;54981;50.206;15.978;2022-09-09T16:24:12;4.15;;;2.85;;
68168;SDS011;54981;50.206;15.978;2022-09-09T16:26:41;3.83;;;3.25;;
68168;SDS011;54981;50.206;15.978;2022-09-09T16:29:11;3.00;;;2.70;;
68168;SDS011;54981;50.206;15.978;2022-09-09T16:31:38;4.07;;;3.05;;
68168;SDS011;54981;50.206;15.978;2022-09-09T16:34:05;6.22;;;3.13;;
68168;SDS011;54981;50.206;15.978;2022-09-09T16:36:31;3.97;;;3.28;;
68168;SDS011;54981;50.206;15.978;2022-09-09T16:38:59;5.05;;;3.22;;
68168;SDS011;54981;50.206;15.978;2022-09-09T16:41:26;4.03;;;3.00;;
68168;SDS011;54981;50.206;15.978;2022-09-09T16:43:53;4.03;;;3.08;;
68168;SDS011;54981;50.206;15.978;2022-09-09T16:46:20;3.40;;;3.03;;
68168;SDS011;54981;50.206;15.978;2022-09-09T16:48:47;3.53;;;2.65;;
68168;SDS011;54981;50.206;15.978;2022-09-09T16:51:14;5.25;;;3.55;;
68168;SDS011;54981;50.206;15.978;2022-09-09T16:53:43;4.05;;;3.05;;
68168;SDS011;54981;50.206;15.978;2022-09-09T16:56:10;7.50;;;2.88;;
68168;SDS011;54981;50.206;15.978;2022-09-09T16:58:37;4.85;;;3.08;;
68168;SDS011;54981;50.206;15.978;2022-09-09T17:01:03;4.57;;;3.25;;
68168;SDS011;54981;50.206;15.978;2022-09-09T17:03:29;6.65;;;3.08;;
68168;SDS011;54981;50.206;15.978;2022-09-09T17:05:56;5.93;;;2.95;;
68168;SDS011;54981;50.206;15.978;2022-09-09T17:08:22;4.53;;;3.83;;
68168;SDS011;54981;50.206;15.978;2022-09-09T17:10:48;4.15;;;3.75;;
68168;SDS011;54981;50.206;15.978;2022-09-09T17:13:14;4.30;;;3.00;;
68168;SDS011;54981;50.206;15.978;2022-09-09T17:15:40;6.65;;;3.25;;
68168;SDS011;54981;50.206;15.978;2022-09-09T17:18:10;6.53;;;3.83;;
68168;SDS011;54981;50.206;15.978;2022-09-09T17:20:39;5.75;;;3.33;;
68168;SDS011;54981;50.206;15.978;2022-09-09T17:23:06;9.20;;;3.40;;